Time;durP1;ratioP1;P1;durP2;ratioP2;P2;SDS_P1;SDS_P2;PMS_P1;PMS_P2;Temp;Humidity;BMP_temperature;BMP_pressure;BME280_temperature;BME280_humidity;BME280_pressure;Samples;Min_cycle;Max_cycle;Signal;HPM_P1;HPM_P2
2022/11/21 00:03:37;;;;;;;47.88;25.25;;;;;;;8.62;100.00;100770.69;10417748;28;20508;-70
2022/11/21 00:08:45;;;;;;;54.05;27.02;;;;;;;8.06;100.00;100670.94;10417913;28;20021;-70
2022/11/21 00:13:46;;;;;;;55.33;27.80;;;;;;;8.51;100.00;100773.50;10418430;28;20099;-70
2022/11/21 00:18:47;;;;;;;56.40;26.88;;;;;;;8.38;100.00;100770.31;10417732;28;20036;-70
2022/11/21 00:23:48;;;;;;;60.30;27.90;;;;;;;8.28;100.00;100745.66;10418288;28;20041;-70
2022/11/21 00:28:49;;;;;;;108.40;44.92;;;;;;;8.29;100.00;100737.59;10418381;28;20470;-70
2022/11/21 00:34:01;;;;;;;79.57;35.42;;;;;;;7.89;100.00;100658.44;10416540;28;20124;-70
2022/11/21 00:39:02;;;;;;;104.90;43.75;;;;;;;8.22;100.00;100734.66;10418047;28;20081;-70
2022/11/21 00:44:03;;;;;;;105.13;44.67;;;;;;;7.75;100.00;100650.00;10417284;28;20032;-70
2022/11/21 00:49:04;;;;;;;98.78;42.45;;;;;;;8.18;100.00;100728.00;10416023;28;20037;-70
2022/11/21 00:54:05;;;;;;;100.13;41.95;;;;;;;8.15;100.00;100736.22;10415868;28;20033;-70
2022/11/21 00:59:05;;;;;;;87.57;41.05;;;;;;;7.82;100.00;100712.91;10415868;28;20113;-70
2022/11/21 01:04:06;;;;;;;101.75;42.47;;;;;;;7.95;100.00;100742.53;10414802;28;20044;-70
2022/11/21 01:09:37;;;;;;;132.15;55.40;;;;;;;7.97;100.00;100741.41;10414507;28;20116;-70
2022/11/21 01:14:38;;;;;;;80.47;37.63;;;;;;;7.80;100.00;100739.47;10414663;28;20489;-70
2022/11/21 01:19:39;;;;;;;74.38;34.83;;;;;;;7.67;100.00;100725.72;10415350;28;20041;-70
2022/11/21 01:24:40;;;;;;;84.90;36.70;;;;;;;7.78;100.00;100752.03;10414585;28;20084;-70
2022/11/21 01:29:40;;;;;;;64.43;30.33;;;;;;;7.73;100.00;100746.31;10415088;28;20049;-70
2022/11/21 01:34:41;;;;;;;40.63;23.70;;;;;;;7.68;100.00;100741.44;10413433;28;20056;-70
2022/11/21 01:39:42;;;;;;;38.88;21.92;;;;;;;7.56;100.00;100716.09;10414474;28;20469;-70
2022/11/21 01:44:52;;;;;;;42.45;22.85;;;;;;;7.33;100.00;100686.50;10413781;28;20025;-70
2022/11/21 01:49:53;;;;;;;42.17;22.35;;;;;;;7.02;100.00;100654.03;10414626;28;20103;-71
2022/11/21 01:54:59;;;;;;;41.90;19.27;;;;;;;7.38;100.00;100712.50;10414373;28;20029;-70
2022/11/21 02:00:20;;;;;;;45.92;22.55;;;;;;;7.37;100.00;100705.53;10413221;28;20087;-70
2022/11/21 02:05:24;;;;;;;84.45;35.80;;;;;;;7.39;100.00;100703.56;10413927;28;20037;-70
2022/11/21 02:10:25;;;;;;;;;;;;;;;7.53;100.00;100719.03;10414870;28;20038;-70
2022/11/21 02:15:28;;;;;;;51.30;23.48;;;;;;;7.26;100.00;100715.25;10414049;28;19913;-70
2022/11/21 02:20:29;;;;;;;42.92;22.85;;;;;;;7.18;100.00;100723.06;10413824;28;20037;-70
2022/11/21 02:25:37;;;;;;;40.63;21.17;;;;;;;7.04;100.00;100718.97;10412217;28;20041;-70
2022/11/21 02:30:40;;;;;;;47.53;20.33;;;;;;;7.15;100.00;100723.31;10416009;28;20549;-70
2022/11/21 02:36:03;;;;;;;75.25;33.15;;;;;;;7.18;100.00;100704.56;10420270;28;20447;-70
2022/11/21 02:47:23;;;;;;;50.72;24.92;;;;;;;6.55;100.00;100614.22;10419701;28;20041;-70
2022/11/21 02:52:24;;;;;;;;;;;;;;;7.34;100.00;100703.19;10421685;28;20358;-70
2022/11/21 02:57:24;;;;;;;55.80;28.42;;;;;;;7.04;100.00;100673.25;10420637;28;19932;-70
2022/11/21 03:02:25;;;;;;;56.47;27.13;;;;;;;7.23;100.00;100683.81;10417499;28;20155;-70
2022/11/21 03:07:26;;;;;;;48.42;25.20;;;;;;;7.44;100.00;100691.63;10418143;28;20079;-70
2022/11/21 03:12:27;;;;;;;62.10;24.52;;;;;;;7.31;100.00;100685.78;10419879;28;20038;-70
2022/11/21 03:17:27;;;;;;;50.58;21.95;;;;;;;7.45;100.00;100673.94;10402344;28;20107;-71
2022/11/21 03:22:28;;;;;;;38.78;20.20;;;;;;;7.29;100.00;100593.41;10419950;28;20041;-71
2022/11/21 03:27:29;;;;;;;37.28;20.75;;;;;;;8.04;100.00;100651.72;10420149;28;20029;-70
2022/11/21 03:32:30;;;;;;;31.58;18.92;;;;;;;7.92;100.00;100598.16;10419958;28;20033;-70
2022/11/21 03:37:30;;;;;;;33.20;21.60;;;;;;;8.40;100.00;100658.03;10419053;28;20125;-71
2022/11/21 03:42:31;;;;;;;28.75;18.73;;;;;;;8.60;100.00;100682.59;10419115;28;20029;-71
2022/11/21 03:47:32;;;;;;;38.03;20.77;;;;;;;8.21;100.00;100607.81;10419039;28;20041;-70
2022/11/21 03:52:33;;;;;;;35.92;21.55;;;;;;;8.73;100.00;100676.13;10414720;28;20044;-71
2022/11/21 03:57:34;;;;;;;38.72;22.35;;;;;;;8.82;100.00;100664.63;10399305;28;20030;-71
2022/11/21 04:02:35;;;;;;;33.95;19.95;;;;;;;8.89;100.00;100655.97;10412073;28;20067;-72
2022/11/21 04:07:35;;;;;;;30.15;19.67;;;;;;;8.59;100.00;100605.97;10400207;28;20030;-72
2022/11/21 04:12:36;;;;;;;35.03;19.85;;;;;;;8.67;100.00;100603.38;10418617;28;20465;-71
2022/11/21 04:18:17;;;;;;;35.88;20.92;;;;;;;9.13;100.00;100668.63;10416701;28;20107;-71
2022/11/21 04:23:18;;;;;;;25.40;18.77;;;;;;;8.59;100.00;100580.31;10417717;28;20040;-71
2022/11/21 04:28:19;;;;;;;26.77;17.77;;;;;;;8.99;100.00;100633.88;10416846;28;20389;-71
2022/11/21 04:33:20;;;;;;;24.63;17.42;;;;;;;9.13;100.00;100660.69;10417417;28;20116;-71
2022/11/21 04:38:21;;;;;;;32.22;17.83;;;;;;;9.14;100.00;100664.16;10417204;28;20488;-72
2022/11/21 04:43:22;;;;;;;25.23;17.35;;;;;;;9.17;100.00;100666.50;10415807;28;20056;-71
2022/11/21 04:48:23;;;;;;;30.23;19.20;;;;;;;9.13;100.00;100658.03;10416652;28;20041;-72
2022/11/21 04:53:24;;;;;;;34.60;19.40;;;;;;;9.32;100.00;100672.09;10414148;28;20034;-72
2022/11/21 04:58:25;;;;;;;30.05;18.98;;;;;;;9.29;100.00;100659.16;10345232;28;20062;-70
2022/11/21 05:03:26;;;;;;;28.33;19.25;;;;;;;9.54;100.00;100684.91;10334566;28;20034;-71
2022/11/21 05:08:26;;;;;;;27.38;19.80;;;;;;;9.66;100.00;100680.19;10334967;28;20041;-68
2022/11/21 05:13:27;;;;;;;27.67;20.13;;;;;;;9.86;100.00;100702.06;10334001;28;20101;-68
2022/11/21 05:18:28;;;;;;;25.67;19.48;;;;;;;9.95;100.00;100706.44;10334393;28;20054;-68
2022/11/21 05:23:29;;;;;;;30.77;21.85;;;;;;;10.03;100.00;100709.16;10333815;28;20362;-69
2022/11/21 05:28:30;;;;;;;28.70;19.80;;;;;;;10.07;100.00;100678.66;10334061;28;20078;-67
2022/11/21 05:33:31;;;;;;;28.50;20.75;;;;;;;10.21;100.00;100684.38;10332772;28;20049;-73
2022/11/21 05:38:32;;;;;;;31.50;20.33;;;;;;;10.26;100.00;100667.03;10333317;28;20057;-69
2022/11/21 05:43:44;;;;;;;30.85;20.88;;;;;;;9.95;100.00;100594.97;10332780;28;20042;-68
2022/11/21 05:48:47;;;;;;;31.63;17.60;;;;;;;10.68;100.00;100673.34;10314895;28;20034;-68
2022/11/21 05:53:48;;;;;;;30.50;20.63;;;;;;;10.74;100.00;100668.22;10315828;28;20359;-68
2022/11/21 05:58:49;;;;;;;34.03;21.75;;;;;;;10.86;100.00;100682.06;10332106;28;20034;-72
2022/11/21 06:03:50;;;;;;;28.88;19.10;;;;;;;10.79;100.00;100646.47;10331150;28;20473;-71
2022/11/21 06:14:44;;;;;;;29.85;20.52;;;;;;;11.09;100.00;100668.13;10332287;28;20060;-71
2022/11/21 06:19:46;;;;;;;32.75;20.70;;;;;;;10.97;100.00;100625.09;10332175;28;20046;-70
2022/11/21 06:24:47;;;;;;;34.90;21.33;;;;;;;11.53;100.00;100666.03;10331436;28;20489;-69
2022/11/21 06:29:48;;;;;;;37.90;22.00;;;;;;;10.81;100.00;100524.09;10292629;28;20035;-71
2022/11/21 06:34:48;;;;;;;33.22;21.90;;;;;;;11.80;100.00;100659.53;10286975;28;20041;-74
2022/11/21 06:39:49;;;;;;;29.45;21.58;;;;;;;11.97;100.00;100654.22;10288518;28;20037;-70
2022/11/21 06:44:50;;;;;;;26.92;20.30;;;;;;;11.96;100.00;100623.25;10288772;28;20034;-71
2022/11/21 06:49:51;;;;;;;36.55;22.27;;;;;;;12.29;100.00;100640.81;10291418;28;20042;-71
2022/11/21 06:54:52;;;;;;;35.95;21.63;;;;;;;12.45;100.00;100663.91;10291176;28;20038;-72
2022/11/21 06:59:53;;;;;;;32.22;21.70;;;;;;;12.61;99.80;100655.00;10290779;28;20039;-71
2022/11/21 07:04:54;;;;;;;30.17;20.92;;;;;;;12.85;99.66;100654.03;10290709;28;20174;-71
2022/11/21 07:10:19;;;;;;;33.08;22.85;;;;;;;13.13;98.30;100654.38;10291239;28;20474;-71
2022/11/21 07:15:20;;;;;;;37.47;22.52;;;;;;;12.91;98.66;100613.34;10290681;28;20049;-71
2022/11/21 07:20:21;;;;;;;32.78;22.80;;;;;;;13.24;97.80;100639.78;10295457;28;20069;-71
2022/11/21 07:25:22;;;;;;;38.00;21.10;;;;;;;13.34;97.05;100608.41;10298105;28;20073;-71
2022/11/21 07:30:22;;;;;;;29.98;21.80;;;;;;;13.64;96.16;100603.13;10297592;28;20459;-71
2022/11/21 07:35:24;;;;;;;33.58;21.13;;;;;;;13.52;95.26;100552.03;10298058;28;20027;-71
2022/11/21 07:40:25;;;;;;;33.85;22.45;;;;;;;13.77;94.24;100551.78;10297777;28;20035;-71
2022/11/21 07:45:25;;;;;;;31.67;22.33;;;;;;;14.30;93.38;100603.25;10297675;28;20066;-71
2022/11/21 07:50:27;;;;;;;29.27;20.65;;;;;;;14.12;91.78;100543.00;10297881;28;20081;-73
2022/11/21 07:55:28;;;;;;;29.23;20.92;;;;;;;14.53;90.22;100576.41;10297352;28;20121;-71
2022/11/21 08:00:30;;;;;;;30.38;20.58;;;;;;;14.82;89.20;100573.66;10295337;28;20042;-71
2022/11/21 08:05:35;;;;;;;33.97;20.48;;;;;;;14.38;86.98;100445.44;10296982;28;20042;-71
2022/11/21 08:10:44;;;;;;;132.38;65.28;;;;;;;15.47;85.20;100531.59;10296586;28;20031;-71
2022/11/21 08:15:44;;;;;;;47.75;29.20;;;;;;;15.89;85.19;100545.91;10278631;28;20046;-71
2022/11/21 08:20:46;;;;;;;55.97;33.90;;;;;;;16.06;84.65;100521.44;10295800;28;20126;-71
2022/11/21 08:25:47;;;;;;;42.85;25.90;;;;;;;16.14;84.08;100550.75;10295520;28;20038;-71
2022/11/21 08:30:47;;;;;;;61.00;35.70;;;;;;;16.35;84.05;100533.72;10295054;28;20042;-71
2022/11/21 08:35:48;;;;;;;197.88;106.85;;;;;;;16.53;83.23;100511.72;10295968;28;20045;-71
2022/11/21 08:42:01;;;;;;;62.03;34.20;;;;;;;16.47;82.44;100499.13;10294847;28;20027;-71
2022/11/21 08:46:12;;;;;;;43.72;25.77;;;;;;;16.69;82.26;100524.72;10295104;28;20042;-71
2022/11/21 08:51:36;;;;;;;209.93;88.35;;;;;;;16.75;79.71;100525.78;10294499;28;20038;-71
2022/11/21 08:56:37;;;;;;;212.68;93.22;;;;;;;16.79;81.93;100500.25;10294365;28;20039;-72
2022/11/21 09:01:38;;;;;;;81.72;47.05;;;;;;;17.08;81.66;100504.38;10291667;28;20034;-72
2022/11/21 09:06:38;;;;;;;40.33;24.73;;;;;;;17.22;80.78;100497.13;10294000;28;20046;-72
2022/11/21 09:11:53;;;;;;;94.80;51.20;;;;;;;17.24;78.82;100462.88;10294051;28;20031;-70
2022/11/21 09:22:13;;;;;;;27.08;17.83;;;;;;;17.39;79.31;100466.16;10292686;28;20063;-70
2022/11/21 09:27:14;;;;;;;23.77;15.75;;;;;;;17.70;78.20;100473.50;10287256;28;20075;-74
2022/11/21 09:32:15;;;;;;;24.70;15.25;;;;;;;17.71;76.30;100388.34;10292490;28;20031;-71
2022/11/21 09:37:15;;;;;;;20.17;13.80;;;;;;;18.57;74.29;100459.66;10293462;28;20125;-71
2022/11/21 09:42:32;;;;;;;17.70;13.13;;;;;;;18.49;71.75;100385.44;10293361;28;20038;-72
2022/11/21 09:47:41;;;;;;;76.05;46.28;;;;;;;18.98;71.24;100440.31;10291952;28;20070;-70
2022/11/21 09:52:50;;;;;;;38.95;23.38;;;;;;;19.11;71.82;100445.56;10293465;28;20122;-70
2022/11/21 09:57:51;;;;;;;24.00;15.88;;;;;;;19.19;70.74;100414.03;10275749;28;20043;-70
2022/11/21 10:02:52;;;;;;;51.00;29.15;;;;;;;18.83;70.41;100338.38;10292561;28;20101;-70
2022/11/21 10:14:39;;;;;;;24.83;16.58;;;;;;;19.39;66.45;100412.75;10291204;28;20063;-70
2022/11/21 10:19:54;;;;;;;21.70;13.57;;;;;;;19.44;68.54;100408.56;10291488;28;20039;-70
2022/11/21 10:25:10;;;;;;;30.75;18.88;;;;;;;19.46;67.37;100403.78;10275165;28;20042;-70
2022/11/21 10:30:18;;;;;;;21.92;13.40;;;;;;;19.03;66.81;100357.00;10292590;28;20089;-70
2022/11/21 10:35:22;;;;;;;23.15;17.02;;;;;;;18.99;69.03;100393.50;10291533;28;20039;-70
2022/11/21 10:40:33;;;;;;;33.28;17.90;;;;;;;18.90;69.76;100398.31;10291781;28;20043;-70
2022/11/21 10:45:33;;;;;;;22.85;15.07;;;;;;;18.42;69.99;100328.16;10291730;28;20382;-70
2022/11/21 10:50:52;;;;;;;21.70;14.35;;;;;;;18.83;70.09;100386.81;10291748;28;20027;-70
2022/11/21 10:56:02;;;;;;;32.80;17.25;;;;;;;18.71;70.64;100389.38;10299647;28;20038;-70
2022/11/21 11:01:03;;;;;;;30.35;18.65;;;;;;;18.54;71.60;100377.50;10299700;28;20027;-70
2022/11/21 11:06:04;;;;;;;33.95;19.45;;;;;;;18.54;72.32;100371.31;10299103;28;20093;-70
2022/11/21 11:11:07;;;;;;;26.75;17.10;;;;;;;18.65;72.00;100374.09;10298397;28;20061;-70
2022/11/21 11:16:10;;;;;;;29.00;17.23;;;;;;;18.68;71.52;100338.69;10290987;28;20050;-71
2022/11/21 11:21:34;;;;;;;24.23;15.43;;;;;;;19.04;70.16;100371.28;10298857;28;20034;-71
2022/11/21 11:26:47;;;;;;;22.80;14.73;;;;;;;19.13;70.38;100380.72;10286067;28;20043;-70
2022/11/21 11:32:26;;;;;;;37.17;19.23;;;;;;;19.18;69.61;100374.69;10297546;28;20038;-71
2022/11/21 11:37:49;;;;;;;19.75;11.98;;;;;;;19.11;69.73;100361.25;10284459;28;20098;-71
2022/11/21 11:48:09;;;;;;;32.13;15.30;;;;;;;19.01;70.27;100364.47;10296848;28;20141;-71
2022/11/21 11:53:16;;;;;;;27.10;14.98;;;;;;;18.93;67.44;100359.38;10297435;28;20133;-70
2022/11/21 11:58:43;;;;;;;24.48;12.00;;;;;;;18.75;68.85;100349.41;10297360;28;20101;-71
2022/11/21 12:03:59;;;;;;;69.43;33.97;;;;;;;18.19;69.49;100277.69;10296375;28;20109;-71
2022/11/21 12:09:21;;;;;;;30.90;14.02;;;;;;;18.63;70.09;100351.97;10294120;28;20031;-71
2022/11/21 12:19:53;;;;;;;26.67;13.57;;;;;;;18.03;71.09;100292.47;10295388;28;20059;-71
2022/11/21 12:24:54;;;;;;;107.50;50.07;;;;;;;18.19;71.93;100340.34;10288743;28;20039;-71
2022/11/21 12:30:13;;;;;;;99.32;43.08;;;;;;;17.97;72.06;100317.53;10293028;28;20034;-72
2022/11/21 12:35:25;;;;;;;63.13;27.27;;;;;;;17.94;72.27;100344.84;10292477;28;20049;-71
2022/11/21 12:40:53;;;;;;;36.22;18.52;;;;;;;17.71;72.62;100351.56;10292410;28;20031;-70
2022/11/21 12:46:06;;;;;;;108.45;44.65;;;;;;;17.09;72.37;100265.28;10286764;28;20482;-70
2022/11/21 12:57:18;;;;;;;192.45;87.25;;;;;;;16.69;72.35;100263.72;10269225;28;20053;-71
2022/11/21 13:02:32;;;;;;;89.28;43.28;;;;;;;16.69;72.78;100318.19;10284637;28;20386;-71
2022/11/21 13:07:33;;;;;;;;;;;;;;;16.69;73.77;100345.00;10285969;28;20031;-71
2022/11/21 13:12:53;;;;;;;72.10;32.00;;;;;;;16.32;75.27;100360.69;10290288;28;19914;-70
2022/11/21 13:18:21;;;;;;;71.35;39.47;;;;;;;16.01;76.94;100363.97;10290555;28;20055;-69
2022/11/21 13:23:31;;;;;;;65.28;35.40;;;;;;;16.02;77.88;100379.00;10293452;28;20090;-71
2022/11/21 13:28:34;;;;;;;55.58;27.45;;;;;;;15.80;78.45;100381.03;10293517;28;20043;-70
2022/11/21 13:33:35;;;;;;;50.25;24.73;;;;;;;15.58;79.12;100377.59;10272441;28;20029;-70
2022/11/21 13:38:53;;;;;;;36.45;16.73;;;;;;;15.46;82.08;100382.69;10290489;28;20043;-69
2022/11/21 13:50:18;;;;;;;143.95;59.47;;;;;;;15.01;83.58;100392.94;10252813;29;20102;-72
2022/11/21 13:55:40;;;;;;;53.47;23.60;;;;;;;14.54;85.67;100338.31;10290176;28;20541;-70
2022/11/21 14:01:03;;;;;;;55.55;32.90;;;;;;;14.66;83.99;100372.53;10292891;28;20049;-70
2022/11/21 14:06:13;;;;;;;;;;;;;;;14.58;83.05;100371.66;10257364;28;20061;-71
2022/11/21 14:11:46;;;;;;;43.25;19.13;;;;;;;14.31;87.43;100372.41;10291067;28;19917;-70
2022/11/21 14:16:57;;;;;;;66.25;30.63;;;;;;;14.05;88.19;100381.81;10279919;28;20043;-71
2022/11/21 14:21:59;;;;;;;31.65;16.27;;;;;;;13.79;88.66;100345.00;10288984;28;20117;-70
2022/11/21 14:27:04;;;;;;;22.55;14.25;;;;;;;13.80;89.77;100345.81;10291054;28;20039;-71
2022/11/21 14:32:47;;;;;;;29.38;15.60;;;;;;;13.92;91.15;100350.47;10290546;28;20394;-71
2022/11/21 14:37:49;;;;;;;22.40;12.93;;;;;;;12.96;89.42;100235.00;10291203;28;20061;-71
2022/11/21 14:42:50;;;;;;;29.83;16.50;;;;;;;13.69;90.32;100345.28;10291076;28;20463;-71
2022/11/21 14:47:53;;;;;;;28.17;15.48;;;;;;;13.20;90.99;100289.88;10289238;28;20062;-71
2022/11/21 14:52:57;;;;;;;21.02;15.02;;;;;;;13.51;90.76;100355.53;10289623;28;20113;-72
2022/11/21 14:58:01;;;;;;;18.67;13.63;;;;;;;13.50;91.26;100351.22;10290169;28;20065;-71
2022/11/21 15:03:24;;;;;;;22.07;13.70;;;;;;;13.51;92.85;100358.22;10291667;28;20039;-71
2022/11/21 15:08:25;;;;;;;16.77;12.73;;;;;;;12.99;91.28;100269.31;10289975;28;20064;-71
2022/11/21 15:13:29;;;;;;;25.38;17.88;;;;;;;13.04;91.70;100276.72;10286825;28;20077;-70
2022/11/21 15:18:32;;;;;;;29.85;17.70;;;;;;;13.37;91.94;100324.38;10284072;28;20043;-71
2022/11/21 15:23:37;;;;;;;26.52;18.42;;;;;;;13.50;92.52;100316.53;10288134;28;20027;-70
2022/11/21 15:28:37;;;;;;;30.98;20.08;;;;;;;13.53;92.24;100310.81;10288587;28;20038;-69
2022/11/21 15:34:04;;;;;;;30.73;20.52;;;;;;;13.54;94.67;100304.44;10287279;28;20027;-70
2022/11/21 15:39:05;;;;;;;28.08;21.02;;;;;;;13.48;93.14;100307.88;10286712;28;20487;-71
2022/11/21 15:44:07;;;;;;;32.78;22.05;;;;;;;13.44;93.69;100287.94;10293794;28;20049;-70
2022/11/21 15:49:10;;;;;;;35.75;24.50;;;;;;;13.32;95.23;100284.91;10290807;28;20504;-70
2022/11/21 15:54:19;;;;;;;32.80;23.50;;;;;;;13.32;96.71;100281.44;10289618;28;20046;-70
2022/11/21 15:59:20;;;;;;;32.90;24.52;;;;;;;12.63;95.59;100178.63;10294248;28;20411;-70
2022/11/21 16:04:21;;;;;;;34.60;23.38;;;;;;;13.18;95.79;100265.22;10295046;28;20105;-70
2022/11/21 16:09:22;;;;;;;32.08;23.00;;;;;;;13.23;95.94;100257.50;10287931;28;20031;-70
2022/11/21 16:14:22;;;;;;;33.95;24.77;;;;;;;12.72;96.28;100176.69;10289214;28;20513;-70
2022/11/21 16:19:24;;;;;;;32.17;22.70;;;;;;;13.27;95.85;100265.97;10238446;29;20426;-69
2022/11/21 16:24:25;;;;;;;35.90;23.90;;;;;;;13.30;95.59;100267.44;10245083;28;20109;-70
2022/11/21 16:29:26;;;;;;;32.63;23.30;;;;;;;13.31;95.56;100256.59;10241193;29;20039;-70
2022/11/21 16:34:27;;;;;;;38.17;24.50;;;;;;;12.88;95.02;100187.13;10250916;29;20031;-70
2022/11/21 16:39:27;;;;;;;32.30;20.90;;;;;;;12.92;94.16;100182.22;10252063;29;20039;-70
2022/11/21 16:44:30;;;;;;;31.17;23.17;;;;;;;13.28;94.01;100238.28;10252988;28;20113;-71
2022/11/21 16:49:31;;;;;;;29.80;21.17;;;;;;;13.29;93.45;100239.13;10256492;28;20049;-70
2022/11/21 16:54:32;;;;;;;31.60;21.42;;;;;;;13.10;93.94;100219.16;10245450;29;20082;-70
2022/11/21 16:59:32;;;;;;;31.38;21.10;;;;;;;13.02;94.18;100225.44;10244354;29;20058;-71
2022/11/21 17:04:35;;;;;;;30.42;20.80;;;;;;;12.05;94.85;100087.06;10240118;28;20502;-70
2022/11/21 17:09:36;;;;;;;36.72;22.42;;;;;;;13.08;94.83;100255.88;10244014;29;20035;-70
2022/11/21 17:14:52;;;;;;;31.40;22.00;;;;;;;12.63;95.97;100181.28;10254291;29;20047;-70
2022/11/21 17:19:53;;;;;;;38.78;21.73;;;;;;;13.10;95.28;100273.34;10290792;28;20047;-70
2022/11/21 17:24:54;;;;;;;33.63;22.67;;;;;;;12.99;95.70;100282.63;10293226;28;20035;-70
2022/11/21 17:29:55;;;;;;;34.10;23.42;;;;;;;12.92;96.12;100295.06;10288569;28;21500;-70
2022/11/21 17:34:56;;;;;;;33.17;22.67;;;;;;;12.74;97.02;100275.91;10293380;28;20122;-69
2022/11/21 17:39:56;;;;;;;29.73;19.90;;;;;;;12.77;96.75;100278.22;10290694;28;20026;-69
2022/11/21 17:44:57;;;;;;;29.38;21.08;;;;;;;12.38;96.78;100236.66;10292806;28;20430;-70
2022/11/21 17:49:58;;;;;;;35.47;21.73;;;;;;;12.34;97.12;100260.19;10293176;28;20493;-70
2022/11/21 18:01:03;;;;;;;33.35;22.45;;;;;;;12.03;98.17;100260.31;10292589;28;20035;-69
2022/11/21 18:06:08;;;;;;;37.10;23.25;;;;;;;11.84;99.61;100250.91;10291539;28;20089;-70
2022/11/21 18:11:13;;;;;;;36.28;24.60;;;;;;;12.01;100.00;100285.44;10292575;28;20056;-69
2022/11/21 18:16:20;;;;;;;42.90;27.35;;;;;;;12.04;100.00;100293.06;10266604;28;20153;-69
2022/11/21 18:21:23;;;;;;;65.93;39.67;;;;;;;11.65;100.00;100222.97;10286114;28;20039;-71
2022/11/21 18:26:26;;;;;;;49.35;31.67;;;;;;;12.01;100.00;100288.09;10284415;28;20485;-70
2022/11/21 18:31:29;;;;;;;55.70;34.13;;;;;;;12.00;100.00;100273.16;10283864;28;20113;-70
2022/11/21 18:36:31;;;;;;;51.05;30.60;;;;;;;11.94;100.00;100265.88;10285480;28;20142;-69
2022/11/21 18:41:37;;;;;;;47.17;30.40;;;;;;;11.82;100.00;100258.28;10290515;28;20035;-69
2022/11/21 18:46:38;;;;;;;36.75;26.52;;;;;;;11.81;100.00;100240.63;10290705;28;20042;-69
2022/11/21 18:51:38;;;;;;;52.08;31.85;;;;;;;11.32;100.00;100165.69;10274175;28;20027;-69
2022/11/21 18:56:39;;;;;;;46.35;28.55;;;;;;;11.67;100.00;100254.75;10292160;28;20478;-69
2022/11/21 19:02:02;;;;;;;46.83;28.20;;;;;;;11.64;100.00;100239.13;10286999;28;20125;-70
2022/11/21 19:07:03;;;;;;;92.53;59.33;;;;;;;11.43;100.00;100234.44;10288762;28;20034;-70
2022/11/21 19:12:04;;;;;;;65.20;41.47;;;;;;;11.23;100.00;100218.09;10290655;28;20043;-70
2022/11/21 19:17:04;;;;;;;52.50;35.90;;;;;;;10.89;100.00;100189.22;10297194;28;20517;-70
2022/11/21 19:22:25;;;;;;;87.65;77.75;;;;;;;10.45;100.00;100129.47;10297020;28;20034;-70
2022/11/21 19:27:26;;;;;;;100.47;88.32;;;;;;;10.63;100.00;100169.06;10299517;28;20031;-70
2022/11/21 19:32:46;;;;;;;61.25;47.28;;;;;;;10.86;100.00;100185.09;10297677;28;20498;-70
2022/11/21 19:37:47;;;;;;;56.88;36.97;;;;;;;10.80;100.00;100175.16;10297740;28;20038;-70
2022/11/21 19:42:47;;;;;;;41.17;28.35;;;;;;;10.68;100.00;100148.13;10297613;28;20490;-68
2022/11/21 19:47:55;;;;;;;45.50;27.20;;;;;;;10.81;100.00;100175.97;10296870;28;20159;-68
2022/11/21 19:52:56;;;;;;;38.30;24.70;;;;;;;10.82;100.00;100173.13;10297008;28;20481;-69
2022/11/21 19:57:57;;;;;;;46.38;30.67;;;;;;;10.14;100.00;100078.09;10298060;28;20116;-70
2022/11/21 20:02:57;;;;;;;53.90;30.95;;;;;;;10.45;100.00;100153.38;10296655;28;20041;-70
2022/11/21 20:07:58;;;;;;;49.13;29.63;;;;;;;10.40;100.00;100152.22;10296424;28;20118;-70
2022/11/21 20:13:00;;;;;;;40.35;26.25;;;;;;;10.45;100.00;100174.63;10294969;28;20430;-70
2022/11/21 20:18:01;;;;;;;38.10;26.30;;;;;;;10.24;100.00;100137.16;10296569;28;20059;-71
2022/11/21 20:23:01;;;;;;;37.55;25.08;;;;;;;10.38;100.00;100159.53;10296294;28;20039;-70
2022/11/21 20:28:02;;;;;;;38.63;24.23;;;;;;;10.05;100.00;100112.66;10296200;28;20038;-70
2022/11/21 20:33:03;;;;;;;43.08;27.38;;;;;;;9.75;100.00;100073.56;10295761;28;20039;-70
2022/11/21 20:38:04;;;;;;;40.85;27.67;;;;;;;9.54;100.00;100060.84;10295019;28;20121;-70
2022/11/21 20:43:05;;;;;;;40.30;27.52;;;;;;;10.03;100.00;100146.50;10295744;28;20031;-70
2022/11/21 20:48:06;;;;;;;41.58;27.27;;;;;;;9.92;100.00;100106.22;10294367;28;20046;-70
2022/11/21 20:53:06;;;;;;;39.05;25.80;;;;;;;10.25;100.00;100155.56;10295104;28;20039;-70
2022/11/21 20:58:07;;;;;;;41.28;25.45;;;;;;;10.32;100.00;100162.88;10295739;28;20534;-70
2022/11/21 21:03:14;;;;;;;55.10;24.30;;;;;;;10.27;100.00;100174.84;10295130;28;20118;-70
2022/11/21 21:08:15;;;;;;;45.88;24.00;;;;;;;10.32;100.00;100169.03;10276456;28;20038;-70
2022/11/21 21:13:16;;;;;;;62.45;25.02;;;;;;;10.15;100.00;100138.19;10293835;28;20378;-70
2022/11/21 21:18:17;;;;;;;68.97;23.38;;;;;;;9.97;100.00;100091.44;10294128;28;20047;-71
2022/11/21 21:23:17;;;;;;;50.75;23.30;;;;;;;9.98;100.00;100106.34;10292815;28;20039;-72
2022/11/21 21:28:18;;;;;;;45.47;23.98;;;;;;;10.38;100.00;100181.63;10293399;28;20469;-70
2022/11/21 21:33:19;;;;;;;36.75;20.85;;;;;;;10.29;100.00;100161.41;10293508;28;20518;-71
2022/11/21 21:38:20;;;;;;;43.90;19.75;;;;;;;10.28;100.00;100178.31;10292805;28;20188;-70
2022/11/21 21:43:20;;;;;;;41.60;20.67;;;;;;;10.23;100.00;100162.88;10292849;28;20038;-71
2022/11/21 21:48:21;;;;;;;52.13;19.60;;;;;;;10.24;100.00;100156.56;10293272;28;20042;-71
2022/11/21 21:53:23;;;;;;;41.05;19.63;;;;;;;10.22;100.00;100161.19;10292479;28;20057;-70
2022/11/21 21:58:24;;;;;;;56.83;20.10;;;;;;;10.22;100.00;100141.81;10292141;28;20039;-71
2022/11/21 22:03:25;;;;;;;31.20;18.52;;;;;;;10.25;100.00;100139.63;10293382;28;20484;-70
2022/11/21 22:08:26;;;;;;;31.77;19.25;;;;;;;10.26;100.00;100129.81;10292871;28;20180;-71
2022/11/21 22:13:26;;;;;;;32.28;17.88;;;;;;;10.22;100.00;100113.41;10292446;28;20487;-71
2022/11/21 22:18:28;;;;;;;39.80;19.15;;;;;;;10.14;100.00;100128.53;10292609;28;20054;-71
2022/11/21 22:23:29;;;;;;;30.80;18.90;;;;;;;9.62;100.00;100062.69;10291718;28;20038;-71
2022/11/21 22:28:30;;;;;;;25.17;17.33;;;;;;;9.98;100.00;100124.13;10292032;28;20031;-71
2022/11/21 22:33:31;;;;;;;28.33;19.05;;;;;;;9.82;100.00;100107.22;10291443;28;20043;-71
2022/11/21 22:38:33;;;;;;;36.22;18.92;;;;;;;9.33;100.00;100040.16;10291551;28;20427;-71
2022/11/21 22:43:34;;;;;;;24.85;17.45;;;;;;;9.35;100.00;100052.25;10292063;28;20077;-71
2022/11/21 22:48:35;;;;;;;27.67;16.10;;;;;;;9.21;100.00;100029.06;10294527;28;20065;-71
2022/11/21 22:53:51;;;;;;;28.83;16.23;;;;;;;9.42;100.00;100063.03;10280703;28;20364;-71
2022/11/21 22:58:53;;;;;;;32.53;16.50;;;;;;;9.36;100.00;100056.59;10298668;28;20141;-71
2022/11/21 23:03:54;;;;;;;26.40;16.00;;;;;;;9.31;100.00;100036.88;10299739;28;20046;-72
2022/11/21 23:08:56;;;;;;;29.27;16.55;;;;;;;9.64;100.00;100088.03;10299266;28;20501;-71
2022/11/21 23:13:57;;;;;;;30.55;18.67;;;;;;;9.74;100.00;100115.19;10298360;28;20039;-72
2022/11/21 23:19:22;;;;;;;30.40;19.30;;;;;;;10.04;100.00;100136.72;10297644;28;20442;-71
2022/11/21 23:24:23;;;;;;;27.30;19.08;;;;;;;9.90;100.00;100114.38;10298830;28;20071;-71
2022/11/21 23:35:39;;;;;;;30.58;20.30;;;;;;;10.03;100.00;100135.88;10298972;28;20059;-71
2022/11/21 23:40:40;;;;;;;33.75;22.45;;;;;;;10.05;100.00;100114.47;10298194;28;20063;-72
2022/11/21 23:45:41;;;;;;;34.92;22.98;;;;;;;10.00;100.00;100114.16;10296994;28;20038;-72